sensor_id;sensor_type;location;lat;lon;timestamp;temperature;humidity
975;DHT22;6115;49.296;10.602;2022-08-11T00:02:36;16.70;44.30
975;DHT22;6115;49.296;10.602;2022-08-11T00:07:47;16.70;44.60
975;DHT22;6115;49.296;10.602;2022-08-11T00:12:56;16.80;44.80
975;DHT22;6115;49.296;10.602;2022-08-11T00:17:59;16.70;44.80
975;DHT22;6115;49.296;10.602;2022-08-11T00:23:08;16.70;45.10
975;DHT22;6115;49.296;10.602;2022-08-11T00:33:42;16.50;45.40
975;DHT22;6115;49.296;10.602;2022-08-11T00:38:44;16.50;45.70
975;DHT22;6115;49.296;10.602;2022-08-11T01:00:23;16.00;46.60
975;DHT22;6115;49.296;10.602;2022-08-11T01:05:33;16.00;46.60
975;DHT22;6115;49.296;10.602;2022-08-11T01:11:01;16.00;46.60
975;DHT22;6115;49.296;10.602;2022-08-11T01:22:13;15.80;46.80
975;DHT22;6115;49.296;10.602;2022-08-11T01:32:57;15.80;47.40
975;DHT22;6115;49.296;10.602;2022-08-11T01:49:20;15.70;47.80
975;DHT22;6115;49.296;10.602;2022-08-11T01:54:20;15.60;48.00
975;DHT22;6115;49.296;10.602;2022-08-11T02:00:06;15.60;48.30
975;DHT22;6115;49.296;10.602;2022-08-11T02:10:26;15.50;48.80
975;DHT22;6115;49.296;10.602;2022-08-11T02:15:53;15.50;48.80
975;DHT22;6115;49.296;10.602;2022-08-11T02:21:02;15.40;49.00
975;DHT22;6115;49.296;10.602;2022-08-11T02:59:14;15.60;48.90
975;DHT22;6115;49.296;10.602;2022-08-11T03:10:22;15.60;49.50
975;DHT22;6115;49.296;10.602;2022-08-11T03:15:31;15.50;49.70
975;DHT22;6115;49.296;10.602;2022-08-11T03:21:36;15.50;49.90
975;DHT22;6115;49.296;10.602;2022-08-11T03:26:53;15.40;50.00
975;DHT22;6115;49.296;10.602;2022-08-11T03:32:01;15.30;50.50
975;DHT22;6115;49.296;10.602;2022-08-11T03:42:58;15.10;50.90
975;DHT22;6115;49.296;10.602;2022-08-11T04:36:51;14.80;52.50
975;DHT22;6115;49.296;10.602;2022-08-11T05:00:23;14.90;52.10
975;DHT22;6115;49.296;10.602;2022-08-11T05:10:48;15.00;52.00
975;DHT22;6115;49.296;10.602;2022-08-11T05:15:53;15.10;52.10
975;DHT22;6115;49.296;10.602;2022-08-11T05:21:13;15.20;51.80
975;DHT22;6115;49.296;10.602;2022-08-11T05:26:43;15.40;52.00
975;DHT22;6115;49.296;10.602;2022-08-11T05:32:03;15.40;52.00
975;DHT22;6115;49.296;10.602;2022-08-11T05:42:31;15.60;51.90
975;DHT22;6115;49.296;10.602;2022-08-11T05:47:52;15.70;52.10
975;DHT22;6115;49.296;10.602;2022-08-11T05:53:13;15.90;51.50
975;DHT22;6115;49.296;10.602;2022-08-11T05:58:35;16.10;51.20
975;DHT22;6115;49.296;10.602;2022-08-11T06:03:36;16.30;50.70
975;DHT22;6115;49.296;10.602;2022-08-11T06:08:58;16.60;50.10
975;DHT22;6115;49.296;10.602;2022-08-11T06:14:01;16.80;49.50
975;DHT22;6115;49.296;10.602;2022-08-11T06:19:03;17.00;48.50
975;DHT22;6115;49.296;10.602;2022-08-11T06:24:11;17.30;47.70
975;DHT22;6115;49.296;10.602;2022-08-11T06:29:12;17.60;47.80
975;DHT22;6115;49.296;10.602;2022-08-11T06:39:38;18.00;47.10
975;DHT22;6115;49.296;10.602;2022-08-11T06:44:56;18.30;46.50
975;DHT22;6115;49.296;10.602;2022-08-11T06:50:00;18.50;46.10
975;DHT22;6115;49.296;10.602;2022-08-11T06:55:24;18.70;45.20
975;DHT22;6115;49.296;10.602;2022-08-11T07:00:46;19.00;44.80
975;DHT22;6115;49.296;10.602;2022-08-11T07:05:53;19.20;44.70
975;DHT22;6115;49.296;10.602;2022-08-11T07:16:38;19.70;44.10
975;DHT22;6115;49.296;10.602;2022-08-11T07:21:42;20.00;43.70
975;DHT22;6115;49.296;10.602;2022-08-11T07:27:05;20.20;42.90
975;DHT22;6115;49.296;10.602;2022-08-11T07:32:32;20.50;42.00
975;DHT22;6115;49.296;10.602;2022-08-11T07:37:33;20.90;41.50
975;DHT22;6115;49.296;10.602;2022-08-11T07:42:35;21.20;40.60
975;DHT22;6115;49.296;10.602;2022-08-11T07:47:37;21.50;40.20
975;DHT22;6115;49.296;10.602;2022-08-11T07:52:58;21.80;39.80
975;DHT22;6115;49.296;10.602;2022-08-11T07:58:00;22.10;38.40
975;DHT22;6115;49.296;10.602;2022-08-11T08:03:20;22.40;37.70
975;DHT22;6115;49.296;10.602;2022-08-11T08:08:40;22.70;36.60
975;DHT22;6115;49.296;10.602;2022-08-11T08:14:00;23.10;33.70
975;DHT22;6115;49.296;10.602;2022-08-11T08:19:20;23.50;32.60
975;DHT22;6115;49.296;10.602;2022-08-11T08:24:21;23.90;31.60
975;DHT22;6115;49.296;10.602;2022-08-11T08:29:22;24.10;31.00
975;DHT22;6115;49.296;10.602;2022-08-11T08:34:43;24.30;31.20
975;DHT22;6115;49.296;10.602;2022-08-11T08:39:47;24.60;30.00
975;DHT22;6115;49.296;10.602;2022-08-11T08:44:54;24.90;29.00
975;DHT22;6115;49.296;10.602;2022-08-11T08:50:00;25.00;29.20
975;DHT22;6115;49.296;10.602;2022-08-11T08:55:04;25.20;29.00
975;DHT22;6115;49.296;10.602;2022-08-11T09:00:06;25.40;29.30
975;DHT22;6115;49.296;10.602;2022-08-11T09:05:08;25.70;28.60
975;DHT22;6115;49.296;10.602;2022-08-11T09:10:09;25.90;28.30
975;DHT22;6115;49.296;10.602;2022-08-11T09:15:11;25.90;28.30
975;DHT22;6115;49.296;10.602;2022-08-11T09:20:25;26.10;27.30
975;DHT22;6115;49.296;10.602;2022-08-11T09:25:31;26.20;28.00
975;DHT22;6115;49.296;10.602;2022-08-11T09:30:51;26.40;27.20
975;DHT22;6115;49.296;10.602;2022-08-11T09:35:55;26.90;27.40
975;DHT22;6115;49.296;10.602;2022-08-11T09:40:56;27.20;26.70
975;DHT22;6115;49.296;10.602;2022-08-11T09:46:00;27.80;25.80
975;DHT22;6115;49.296;10.602;2022-08-11T09:51:01;28.20;24.00
975;DHT22;6115;49.296;10.602;2022-08-11T09:56:04;28.50;23.90
975;DHT22;6115;49.296;10.602;2022-08-11T10:01:29;28.70;23.30
975;DHT22;6115;49.296;10.602;2022-08-11T10:06:33;28.70;23.60
975;DHT22;6115;49.296;10.602;2022-08-11T10:11:56;28.80;23.00
975;DHT22;6115;49.296;10.602;2022-08-11T10:16:58;29.20;22.90
975;DHT22;6115;49.296;10.602;2022-08-11T10:22:02;29.50;22.60
975;DHT22;6115;49.296;10.602;2022-08-11T10:27:22;29.80;21.20
975;DHT22;6115;49.296;10.602;2022-08-11T10:32:26;29.90;21.10
975;DHT22;6115;49.296;10.602;2022-08-11T10:37:46;30.10;21.20
975;DHT22;6115;49.296;10.602;2022-08-11T10:42:51;30.10;21.20
975;DHT22;6115;49.296;10.602;2022-08-11T10:48:04;30.10;20.60
975;DHT22;6115;49.296;10.602;2022-08-11T10:53:06;30.30;21.30
975;DHT22;6115;49.296;10.602;2022-08-11T10:58:26;30.40;20.50
975;DHT22;6115;49.296;10.602;2022-08-11T11:03:46;30.20;20.60
975;DHT22;6115;49.296;10.602;2022-08-11T11:08:48;30.30;20.60
975;DHT22;6115;49.296;10.602;2022-08-11T11:13:52;30.40;19.50
975;DHT22;6115;49.296;10.602;2022-08-11T11:19:12;30.50;21.10
975;DHT22;6115;49.296;10.602;2022-08-11T11:24:44;30.70;21.50
975;DHT22;6115;49.296;10.602;2022-08-11T11:30:09;30.90;19.70
975;DHT22;6115;49.296;10.602;2022-08-11T11:40:19;30.80;19.90
975;DHT22;6115;49.296;10.602;2022-08-11T11:45:23;30.70;20.70
975;DHT22;6115;49.296;10.602;2022-08-11T11:50:28;31.00;19.90
975;DHT22;6115;49.296;10.602;2022-08-11T11:55:30;31.30;19.60
975;DHT22;6115;49.296;10.602;2022-08-11T12:00:31;31.30;19.80
975;DHT22;6115;49.296;10.602;2022-08-11T12:05:52;31.20;18.10
975;DHT22;6115;49.296;10.602;2022-08-11T12:10:56;31.20;19.00
975;DHT22;6115;49.296;10.602;2022-08-11T12:16:17;31.50;18.70
975;DHT22;6115;49.296;10.602;2022-08-11T12:21:19;31.40;19.00
975;DHT22;6115;49.296;10.602;2022-08-11T12:26:21;31.20;19.50
975;DHT22;6115;49.296;10.602;2022-08-11T12:31:42;31.20;19.50
975;DHT22;6115;49.296;10.602;2022-08-11T12:36:55;31.30;18.30
975;DHT22;6115;49.296;10.602;2022-08-11T12:41:59;30.90;18.40
975;DHT22;6115;49.296;10.602;2022-08-11T12:47:20;31.00;18.80
975;DHT22;6115;49.296;10.602;2022-08-11T12:52:26;31.60;18.90
975;DHT22;6115;49.296;10.602;2022-08-11T12:57:38;31.60;19.00
975;DHT22;6115;49.296;10.602;2022-08-11T13:02:57;31.40;18.70
975;DHT22;6115;49.296;10.602;2022-08-11T13:08:19;31.40;18.60
975;DHT22;6115;49.296;10.602;2022-08-11T13:13:21;31.80;17.90
975;DHT22;6115;49.296;10.602;2022-08-11T13:18:22;31.70;18.30
975;DHT22;6115;49.296;10.602;2022-08-11T13:23:24;32.10;17.80
975;DHT22;6115;49.296;10.602;2022-08-11T13:28:25;32.30;18.20
975;DHT22;6115;49.296;10.602;2022-08-11T13:33:26;32.90;17.70
975;DHT22;6115;49.296;10.602;2022-08-11T13:38:28;32.50;17.50
975;DHT22;6115;49.296;10.602;2022-08-11T13:43:29;32.30;17.90
975;DHT22;6115;49.296;10.602;2022-08-11T13:48:30;32.50;17.60
975;DHT22;6115;49.296;10.602;2022-08-11T13:53:31;32.60;17.40
975;DHT22;6115;49.296;10.602;2022-08-11T13:58:32;33.30;17.00
975;DHT22;6115;49.296;10.602;2022-08-11T14:03:33;33.30;16.60
975;DHT22;6115;49.296;10.602;2022-08-11T14:08:37;34.10;15.90
975;DHT22;6115;49.296;10.602;2022-08-11T14:13:41;34.10;15.80
975;DHT22;6115;49.296;10.602;2022-08-11T14:18:45;33.70;15.50
975;DHT22;6115;49.296;10.602;2022-08-11T14:23:48;34.40;15.20
975;DHT22;6115;49.296;10.602;2022-08-11T14:28:52;33.40;15.70
975;DHT22;6115;49.296;10.602;2022-08-11T14:33:56;33.80;15.80
975;DHT22;6115;49.296;10.602;2022-08-11T14:39:09;33.80;15.40
975;DHT22;6115;49.296;10.602;2022-08-11T14:44:12;33.80;14.80
975;DHT22;6115;49.296;10.602;2022-08-11T14:49:35;34.10;15.20
975;DHT22;6115;49.296;10.602;2022-08-11T14:54:37;33.50;16.60
975;DHT22;6115;49.296;10.602;2022-08-11T15:00:09;33.40;15.80
975;DHT22;6115;49.296;10.602;2022-08-11T15:05:12;33.30;15.70
975;DHT22;6115;49.296;10.602;2022-08-11T15:10:16;33.10;15.50
975;DHT22;6115;49.296;10.602;2022-08-11T15:15:18;32.90;15.50
975;DHT22;6115;49.296;10.602;2022-08-11T15:20:38;33.30;15.60
975;DHT22;6115;49.296;10.602;2022-08-11T15:26:08;33.90;14.90
975;DHT22;6115;49.296;10.602;2022-08-11T15:31:10;33.50;15.10
975;DHT22;6115;49.296;10.602;2022-08-11T15:36:33;33.50;14.70
975;DHT22;6115;49.296;10.602;2022-08-11T15:42:11;33.90;14.90
975;DHT22;6115;49.296;10.602;2022-08-11T15:47:41;33.60;14.70
975;DHT22;6115;49.296;10.602;2022-08-11T15:58:01;32.60;15.10
975;DHT22;6115;49.296;10.602;2022-08-11T16:03:23;31.90;15.80
975;DHT22;6115;49.296;10.602;2022-08-11T16:08:43;31.50;16.20
975;DHT22;6115;49.296;10.602;2022-08-11T16:13:45;31.00;16.60
975;DHT22;6115;49.296;10.602;2022-08-11T16:19:06;30.90;16.40
975;DHT22;6115;49.296;10.602;2022-08-11T16:24:12;30.70;16.90
975;DHT22;6115;49.296;10.602;2022-08-11T16:29:14;30.20;17.20
975;DHT22;6115;49.296;10.602;2022-08-11T16:34:15;30.20;17.70
975;DHT22;6115;49.296;10.602;2022-08-11T16:39:35;29.90;18.20
975;DHT22;6115;49.296;10.602;2022-08-11T16:44:36;29.70;18.10
975;DHT22;6115;49.296;10.602;2022-08-11T16:49:56;29.60;18.40
975;DHT22;6115;49.296;10.602;2022-08-11T16:54:57;29.30;18.70
975;DHT22;6115;49.296;10.602;2022-08-11T17:00:07;29.10;18.70
975;DHT22;6115;49.296;10.602;2022-08-11T17:05:16;28.90;19.10
975;DHT22;6115;49.296;10.602;2022-08-11T17:10:43;28.90;19.30
975;DHT22;6115;49.296;10.602;2022-08-11T17:16:05;28.70;20.20
975;DHT22;6115;49.296;10.602;2022-08-11T17:21:10;28.50;20.40
975;DHT22;6115;49.296;10.602;2022-08-11T17:31:47;28.10;20.20
975;DHT22;6115;49.296;10.602;2022-08-11T17:37:07;27.90;20.30
975;DHT22;6115;49.296;10.602;2022-08-11T17:42:08;27.80;20.10
975;DHT22;6115;49.296;10.602;2022-08-11T17:47:29;27.60;20.60
975;DHT22;6115;49.296;10.602;2022-08-11T17:52:48;27.40;20.90
975;DHT22;6115;49.296;10.602;2022-08-11T17:58:09;27.40;21.40
975;DHT22;6115;49.296;10.602;2022-08-11T18:03:28;27.20;21.60
975;DHT22;6115;49.296;10.602;2022-08-11T18:08:33;27.00;21.90
975;DHT22;6115;49.296;10.602;2022-08-11T18:13:57;26.90;22.00
975;DHT22;6115;49.296;10.602;2022-08-11T18:19:19;26.70;22.40
975;DHT22;6115;49.296;10.602;2022-08-11T18:24:42;26.60;22.40
975;DHT22;6115;49.296;10.602;2022-08-11T18:30:03;26.50;22.60
975;DHT22;6115;49.296;10.602;2022-08-11T18:35:23;26.40;22.90
975;DHT22;6115;49.296;10.602;2022-08-11T18:40:43;26.20;23.20
975;DHT22;6115;49.296;10.602;2022-08-11T18:46:05;26.00;23.70
975;DHT22;6115;49.296;10.602;2022-08-11T18:51:25;25.90;23.80
975;DHT22;6115;49.296;10.602;2022-08-11T18:56:46;25.70;24.30
975;DHT22;6115;49.296;10.602;2022-08-11T19:02:07;25.50;25.00
975;DHT22;6115;49.296;10.602;2022-08-11T19:07:29;25.20;25.40
975;DHT22;6115;49.296;10.602;2022-08-11T19:12:48;24.90;25.80
975;DHT22;6115;49.296;10.602;2022-08-11T19:18:18;24.60;26.20
975;DHT22;6115;49.296;10.602;2022-08-11T19:23:42;24.40;26.60
975;DHT22;6115;49.296;10.602;2022-08-11T19:29:02;24.20;27.00
975;DHT22;6115;49.296;10.602;2022-08-11T19:34:24;23.90;27.60
975;DHT22;6115;49.296;10.602;2022-08-11T19:39:43;23.60;27.70
975;DHT22;6115;49.296;10.602;2022-08-11T19:45:04;23.40;28.30
975;DHT22;6115;49.296;10.602;2022-08-11T19:50:24;23.30;28.90
975;DHT22;6115;49.296;10.602;2022-08-11T19:55:45;23.20;29.40
975;DHT22;6115;49.296;10.602;2022-08-11T20:01:05;23.00;29.60
975;DHT22;6115;49.296;10.602;2022-08-11T20:06:25;22.90;29.80
975;DHT22;6115;49.296;10.602;2022-08-11T20:11:50;22.60;30.00
975;DHT22;6115;49.296;10.602;2022-08-11T20:17:11;22.40;30.90
975;DHT22;6115;49.296;10.602;2022-08-11T20:22:32;22.20;32.10
975;DHT22;6115;49.296;10.602;2022-08-11T20:27:52;22.00;32.20
975;DHT22;6115;49.296;10.602;2022-08-11T20:33:12;21.80;32.60
975;DHT22;6115;49.296;10.602;2022-08-11T20:38:32;21.60;32.40
975;DHT22;6115;49.296;10.602;2022-08-11T20:43:55;21.40;32.20
975;DHT22;6115;49.296;10.602;2022-08-11T20:49:15;21.00;33.20
975;DHT22;6115;49.296;10.602;2022-08-11T20:54:35;20.80;33.90
975;DHT22;6115;49.296;10.602;2022-08-11T20:59:55;20.70;34.70
975;DHT22;6115;49.296;10.602;2022-08-11T21:05:15;20.50;34.70
975;DHT22;6115;49.296;10.602;2022-08-11T21:10:38;20.20;35.10
975;DHT22;6115;49.296;10.602;2022-08-11T21:16:02;20.10;35.30
975;DHT22;6115;49.296;10.602;2022-08-11T21:21:22;19.90;35.50
975;DHT22;6115;49.296;10.602;2022-08-11T21:26:45;19.80;35.70
975;DHT22;6115;49.296;10.602;2022-08-11T21:32:06;19.60;36.10
975;DHT22;6115;49.296;10.602;2022-08-11T21:37:26;19.60;36.40
975;DHT22;6115;49.296;10.602;2022-08-11T21:42:47;19.60;36.40
975;DHT22;6115;49.296;10.602;2022-08-11T21:48:07;19.60;36.70
975;DHT22;6115;49.296;10.602;2022-08-11T21:53:27;19.50;37.00
975;DHT22;6115;49.296;10.602;2022-08-11T21:58:50;19.40;37.10
975;DHT22;6115;49.296;10.602;2022-08-11T22:04:10;19.30;37.30
975;DHT22;6115;49.296;10.602;2022-08-11T22:09:29;19.30;37.60
975;DHT22;6115;49.296;10.602;2022-08-11T22:14:48;19.20;37.70
975;DHT22;6115;49.296;10.602;2022-08-11T22:20:10;19.10;38.00
975;DHT22;6115;49.296;10.602;2022-08-11T22:25:30;19.10;38.30
975;DHT22;6115;49.296;10.602;2022-08-11T22:30:50;19.00;38.60
975;DHT22;6115;49.296;10.602;2022-08-11T22:36:10;18.90;38.60
975;DHT22;6115;49.296;10.602;2022-08-11T22:41:31;18.90;38.80
975;DHT22;6115;49.296;10.602;2022-08-11T22:46:53;18.90;39.00
975;DHT22;6115;49.296;10.602;2022-08-11T22:52:14;18.90;39.20
975;DHT22;6115;49.296;10.602;2022-08-11T22:57:34;18.90;39.70
975;DHT22;6115;49.296;10.602;2022-08-11T23:02:54;18.80;39.60
975;DHT22;6115;49.296;10.602;2022-08-11T23:08:14;18.70;39.60
975;DHT22;6115;49.296;10.602;2022-08-11T23:13:33;18.70;39.60
975;DHT22;6115;49.296;10.602;2022-08-11T23:18:53;18.50;40.10
975;DHT22;6115;49.296;10.602;2022-08-11T23:24:13;18.40;40.80
975;DHT22;6115;49.296;10.602;2022-08-11T23:29:34;18.30;41.10
975;DHT22;6115;49.296;10.602;2022-08-11T23:34:54;18.10;41.60
975;DHT22;6115;49.296;10.602;2022-08-11T23:40:14;18.10;41.80
975;DHT22;6115;49.296;10.602;2022-08-11T23:45:34;18.00;42.20
975;DHT22;6115;49.296;10.602;2022-08-11T23:50:54;17.80;42.50
975;DHT22;6115;49.296;10.602;2022-08-11T23:56:13;17.80;42.90
